EDLV/NRN METAR and TAF weather

Enter ICAO airport designator
Station Type Date Time Source
EDLV METAR 2021/04/17 21:50 UTC NOAA

EDLV 172150Z VRB02KT CAVOK 07/01 Q1023


Station Type Date Time Source
EDLV Decoded METAR 2021/04/17 21:50 UTC NOAA

Niederrhein, Germany (EDLV) 51-36-09N 006-08-32E
Apr 17, 2021 - 05:50 PM EDT / 2021.04.17 2150 UTC
Wind: Variable at 2 MPH (2 KT):0
Visibility: greater than 7 mile(s):0
Temperature: 44 F (7 C)
Dew Point: 33 F (1 C)
Relative Humidity: 65%
Pressure (altimeter): 30.21 in. Hg (1023 hPa)
ob: EDLV 172150Z VRB02KT CAVOK 07/01 Q1023
cycle: 22

Station Type Date Time Source
EDLV TAF 2021/04/17 22:54 UTC NOAA

TAF
AMD TAF
AMD EDLV 172250Z 1722/1818 CNL

Example: see airport list